createdAt,value
2022-09-14T00:01:48.847Z,17.40
2022-09-14T00:04:18.407Z,17.40
2022-09-14T00:06:46.103Z,17.50
2022-09-14T00:09:20.334Z,17.40
2022-09-14T00:11:47.606Z,17.40
2022-09-14T00:14:15.142Z,17.40
2022-09-14T00:16:42.939Z,17.40
2022-09-14T00:19:36.419Z,17.40
2022-09-14T00:22:03.872Z,17.40
2022-09-14T00:24:31.232Z,17.50
2022-09-14T00:26:58.275Z,17.50
2022-09-14T00:29:25.578Z,17.40
2022-09-14T00:31:52.672Z,17.40
2022-09-14T00:34:19.991Z,17.40
2022-09-14T00:36:48.969Z,17.40
2022-09-14T00:39:18.359Z,17.40
2022-09-14T00:41:47.172Z,17.40
2022-09-14T00:44:13.922Z,17.40
2022-09-14T00:46:46.779Z,17.40
2022-09-14T00:49:22.736Z,17.40
2022-09-14T00:52:01.369Z,17.40
2022-09-14T00:54:28.205Z,17.40
2022-09-14T00:56:55.932Z,17.40
2022-09-14T00:59:27.607Z,17.40
2022-09-14T01:01:54.538Z,17.40
2022-09-14T01:04:22.300Z,17.40
2022-09-14T01:07:18.219Z,17.40
2022-09-14T01:10:04.467Z,17.40
2022-09-14T01:12:49.088Z,17.40
2022-09-14T01:15:27.774Z,17.40
2022-09-14T01:17:57.578Z,17.40
2022-09-14T01:20:31.312Z,17.40
2022-09-14T01:23:36.554Z,17.30
2022-09-14T01:26:03.298Z,17.30
2022-09-14T01:28:41.315Z,17.30
2022-09-14T01:31:18.597Z,17.30
2022-09-14T01:34:14.734Z,17.30
2022-09-14T01:36:46.447Z,17.30
2022-09-14T01:39:16.409Z,17.30
2022-09-14T01:41:45.678Z,17.30
2022-09-14T01:44:25.455Z,17.30
2022-09-14T01:46:56.907Z,17.30
2022-09-14T01:49:41.846Z,17.30
2022-09-14T01:52:16.800Z,17.30
2022-09-14T01:54:58.723Z,17.30
2022-09-14T01:57:34.514Z,17.20
2022-09-14T02:00:10.103Z,17.30
2022-09-14T02:02:44.787Z,17.30
2022-09-14T02:05:17.255Z,17.30
2022-09-14T02:07:44.292Z,17.30
2022-09-14T02:10:15.535Z,17.30
2022-09-14T02:12:42.976Z,17.20
2022-09-14T02:15:12.819Z,17.30
2022-09-14T02:17:40.164Z,17.20
2022-09-14T02:20:26.563Z,17.20
2022-09-14T02:22:53.648Z,17.20
2022-09-14T02:25:21.321Z,17.20
2022-09-14T02:27:48.576Z,17.20
2022-09-14T02:30:17.130Z,17.20
2022-09-14T02:33:08.420Z,17.20
2022-09-14T02:35:56.599Z,17.20
2022-09-14T02:38:58.703Z,17.20
2022-09-14T02:41:39.720Z,17.20
2022-09-14T02:44:37.243Z,17.20
2022-09-14T02:47:14.294Z,17.10
2022-09-14T02:50:13.059Z,17.20
2022-09-14T02:53:12.319Z,17.20
2022-09-14T02:55:46.643Z,17.20
2022-09-14T02:58:14.627Z,17.20
2022-09-14T03:00:45.299Z,17.20
2022-09-14T03:03:15.169Z,17.20
2022-09-14T03:05:42.612Z,17.10
2022-09-14T03:08:12.791Z,17.20
2022-09-14T03:10:43.407Z,17.20
2022-09-14T03:13:10.780Z,17.20
2022-09-14T03:15:37.739Z,17.20
2022-09-14T03:18:09.140Z,17.20
2022-09-14T03:20:40.145Z,17.20
2022-09-14T03:23:09.113Z,17.20
2022-09-14T03:25:41.384Z,17.20
2022-09-14T03:28:09.154Z,17.20
2022-09-14T03:30:36.344Z,17.20
2022-09-14T03:33:03.831Z,17.20
2022-09-14T03:35:31.646Z,17.20
2022-09-14T03:37:59.819Z,17.20
2022-09-14T03:40:27.670Z,17.20
2022-09-14T03:42:54.892Z,17.30
2022-09-14T03:45:22.076Z,17.30
2022-09-14T03:47:49.695Z,17.20
2022-09-14T03:50:18.195Z,17.20
2022-09-14T03:52:45.169Z,17.20
2022-09-14T03:55:12.083Z,17.20
2022-09-14T03:57:39.536Z,17.20
2022-09-14T04:00:08.543Z,17.30
2022-09-14T04:02:38.997Z,17.20
2022-09-14T04:05:07.163Z,17.20
2022-09-14T04:07:34.190Z,17.20
2022-09-14T04:10:01.279Z,17.20
2022-09-14T04:12:28.295Z,17.20
2022-09-14T04:14:55.079Z,17.20
2022-09-14T04:17:25.246Z,17.20
2022-09-14T04:19:52.300Z,17.20
2022-09-14T04:22:19.174Z,17.20
2022-09-14T04:24:46.136Z,17.20
2022-09-14T04:27:13.288Z,17.20
2022-09-14T04:30:02.098Z,17.20
2022-09-14T04:32:34.045Z,17.10
2022-09-14T04:35:01.375Z,17.10
2022-09-14T04:37:31.788Z,17.20
2022-09-14T04:39:58.885Z,17.10
2022-09-14T04:42:25.805Z,17.20
2022-09-14T04:44:52.705Z,17.20
2022-09-14T04:47:19.525Z,17.20
2022-09-14T04:49:47.588Z,17.20
2022-09-14T04:52:14.386Z,17.20
2022-09-14T04:54:41.192Z,17.20
2022-09-14T04:57:08.013Z,17.20
2022-09-14T04:59:35.032Z,17.20
2022-09-14T05:02:02.109Z,17.20
2022-09-14T05:04:28.960Z,17.30
2022-09-14T05:06:56.362Z,17.30
2022-09-14T05:09:23.275Z,17.30
2022-09-14T05:11:51.964Z,17.30
2022-09-14T05:14:18.778Z,17.20
2022-09-14T05:16:45.707Z,17.20
2022-09-14T05:19:17.999Z,17.20
2022-09-14T05:21:45.463Z,17.20
2022-09-14T05:24:14.885Z,17.20
2022-09-14T05:26:43.517Z,17.20
2022-09-14T05:29:16.340Z,17.20
2022-09-14T05:31:43.652Z,17.10
2022-09-14T05:34:11.276Z,17.10
2022-09-14T05:36:39.394Z,17.10
2022-09-14T05:39:08.361Z,17.10
2022-09-14T05:41:35.236Z,17.10
2022-09-14T05:44:02.180Z,17.10
2022-09-14T05:46:29.081Z,17.10
2022-09-14T05:48:58.012Z,17.10
2022-09-14T05:51:26.594Z,17.00
2022-09-14T05:53:55.536Z,17.00
2022-09-14T05:56:24.596Z,17.00
2022-09-14T05:58:52.923Z,17.00
2022-09-14T06:01:25.735Z,17.00
2022-09-14T06:03:57.544Z,17.00
2022-09-14T06:06:24.566Z,17.00
2022-09-14T06:08:54.162Z,17.00
2022-09-14T06:11:23.887Z,17.00
2022-09-14T06:13:51.269Z,17.00
2022-09-14T06:16:20.769Z,17.00
2022-09-14T06:18:50.305Z,17.00
2022-09-14T06:21:19.534Z,17.00
2022-09-14T06:23:47.565Z,17.00
2022-09-14T06:26:14.807Z,17.00
2022-09-14T06:29:01.856Z,17.10
2022-09-14T06:31:28.971Z,17.10
2022-09-14T06:33:55.808Z,17.10
2022-09-14T06:36:27.390Z,17.10
2022-09-14T06:38:59.010Z,17.10
2022-09-14T06:41:30.371Z,17.10
2022-09-14T06:43:58.955Z,17.10
2022-09-14T06:46:28.619Z,17.20
2022-09-14T06:49:02.152Z,17.10
2022-09-14T06:51:36.183Z,17.10
2022-09-14T06:54:03.431Z,17.10
2022-09-14T06:56:38.867Z,17.20
2022-09-14T06:59:09.639Z,17.10
2022-09-14T07:01:37.043Z,17.20
2022-09-14T07:04:04.418Z,17.10
2022-09-14T07:06:39.031Z,17.10
2022-09-14T07:09:07.289Z,17.20
2022-09-14T07:11:34.687Z,17.20
2022-09-14T07:14:02.185Z,17.20
2022-09-14T07:16:31.197Z,17.30
2022-09-14T07:19:01.766Z,17.30
2022-09-14T07:21:29.939Z,17.30
2022-09-14T07:23:56.977Z,17.30
2022-09-14T07:26:31.323Z,17.40
2022-09-14T07:29:05.279Z,17.40
2022-09-14T07:31:40.855Z,17.40
2022-09-14T07:34:08.147Z,17.50
2022-09-14T07:36:36.418Z,17.50
2022-09-14T07:39:08.558Z,17.50
2022-09-14T07:41:36.357Z,17.50
2022-09-14T07:44:06.331Z,17.60
2022-09-14T07:46:39.103Z,17.60
2022-09-14T07:49:07.408Z,17.60
2022-09-14T07:51:36.886Z,17.60
2022-09-14T07:54:06.524Z,17.60
2022-09-14T07:56:34.995Z,17.60
2022-09-14T07:59:30.873Z,17.60
2022-09-14T08:01:51.513Z,17.60
2022-09-14T08:04:18.348Z,17.60
2022-09-14T08:06:45.125Z,17.60
2022-09-14T08:09:12.451Z,17.60
2022-09-14T08:11:39.383Z,17.60
2022-09-14T08:14:12.007Z,17.60
2022-09-14T08:16:40.529Z,17.70
2022-09-14T08:19:13.318Z,17.70
2022-09-14T08:21:45.633Z,17.80
2022-09-14T08:24:14.909Z,17.90
2022-09-14T08:26:41.759Z,17.90
2022-09-14T08:29:08.938Z,18.00
2022-09-14T08:31:39.365Z,17.90
2022-09-14T08:34:06.988Z,17.90
2022-09-14T08:36:36.554Z,17.90
2022-09-14T08:39:06.357Z,18.00
2022-09-14T08:41:47.551Z,18.00
2022-09-14T08:44:23.647Z,18.10
2022-09-14T08:47:13.804Z,18.10
2022-09-14T08:50:03.032Z,18.20
2022-09-14T08:52:48.091Z,18.30
2022-09-14T08:55:45.172Z,18.40
2022-09-14T08:58:48.181Z,18.60
2022-09-14T09:01:24.563Z,18.70
2022-09-14T09:04:17.401Z,18.90
2022-09-14T09:07:07.615Z,18.90
2022-09-14T09:09:46.083Z,18.90
2022-09-14T09:12:21.863Z,19.00
2022-09-14T09:15:21.308Z,19.00
2022-09-14T09:17:54.379Z,19.00
2022-09-14T09:20:34.344Z,19.00
2022-09-14T09:23:29.020Z,19.00
2022-09-14T09:26:00.584Z,18.90
2022-09-14T09:28:29.769Z,18.90
2022-09-14T09:31:04.859Z,19.00
2022-09-14T09:33:51.887Z,19.00
2022-09-14T09:36:22.439Z,19.00
2022-09-14T09:38:50.312Z,19.10
2022-09-14T09:41:22.007Z,19.10
2022-09-14T09:44:02.259Z,19.20
2022-09-14T09:46:34.542Z,19.20
2022-09-14T09:49:20.329Z,19.30
2022-09-14T09:51:47.636Z,19.30
2022-09-14T09:54:14.410Z,19.50
2022-09-14T09:57:04.546Z,19.50
2022-09-14T09:59:41.062Z,19.60
2022-09-14T10:02:41.256Z,19.70
2022-09-14T10:05:11.977Z,19.80
2022-09-14T10:08:08.045Z,19.90
2022-09-14T10:10:39.260Z,19.90
2022-09-14T10:13:23.524Z,20.00
2022-09-14T10:15:50.613Z,20.00
2022-09-14T10:18:19.200Z,20.20
2022-09-14T10:20:52.647Z,20.30
2022-09-14T10:23:19.521Z,20.40
2022-09-14T10:25:49.455Z,20.50
2022-09-14T10:28:22.669Z,20.50
2022-09-14T10:31:00.649Z,20.50
2022-09-14T10:33:28.745Z,20.60
2022-09-14T10:36:13.788Z,20.60
2022-09-14T10:38:58.479Z,20.70
2022-09-14T10:41:33.563Z,20.60
2022-09-14T10:44:06.263Z,20.70
2022-09-14T10:46:42.622Z,20.80
2022-09-14T10:49:27.898Z,20.80
2022-09-14T10:52:03.791Z,20.70
2022-09-14T10:55:04.741Z,20.70
2022-09-14T10:57:50.643Z,20.80
2022-09-14T11:00:41.658Z,21.00
2022-09-14T11:03:14.343Z,21.30
2022-09-14T11:05:57.527Z,21.50
2022-09-14T11:08:46.437Z,21.70
2022-09-14T11:11:36.668Z,21.80
2022-09-14T11:14:12.106Z,22.00
2022-09-14T11:17:07.234Z,22.50
2022-09-14T11:19:54.236Z,23.10
2022-09-14T11:22:42.911Z,23.70
2022-09-14T11:25:27.487Z,24.40
2022-09-14T11:28:09.475Z,25.00
2022-09-14T11:30:44.244Z,25.10
2022-09-14T11:33:20.449Z,25.30
2022-09-14T11:35:57.150Z,25.50
2022-09-14T11:38:31.112Z,25.60
2022-09-14T11:41:03.044Z,25.50
2022-09-14T11:43:40.531Z,25.40
2022-09-14T11:46:12.678Z,25.20
2022-09-14T11:49:07.116Z,25.10
2022-09-14T11:51:43.659Z,25.30
2022-09-14T11:54:17.270Z,25.40
2022-09-14T11:56:48.604Z,25.40
2022-09-14T11:59:52.987Z,25.30
2022-09-14T12:02:22.747Z,25.00
2022-09-14T12:05:04.987Z,25.00
2022-09-14T12:07:46.920Z,25.70
2022-09-14T12:10:20.644Z,26.40
2022-09-14T12:12:58.115Z,27.30
2022-09-14T12:15:25.000Z,28.20
2022-09-14T12:18:22.407Z,28.80
2022-09-14T12:21:09.449Z,28.90
2022-09-14T12:23:39.460Z,28.50
2022-09-14T12:26:06.425Z,28.00
2022-09-14T12:28:39.654Z,27.60
2022-09-14T12:31:09.520Z,27.20
2022-09-14T12:33:36.646Z,27.00
2022-09-14T12:36:21.710Z,27.30
2022-09-14T12:38:52.226Z,27.90
2022-09-14T12:41:21.924Z,28.60
2022-09-14T12:43:51.790Z,29.30
2022-09-14T12:46:21.862Z,30.00
2022-09-14T12:49:34.579Z,30.80
2022-09-14T12:52:10.998Z,31.60
2022-09-14T12:55:00.480Z,32.00
2022-09-14T12:57:42.301Z,32.20
2022-09-14T13:00:16.167Z,32.50
2022-09-14T13:02:50.626Z,32.60
2022-09-14T13:05:23.675Z,32.60
2022-09-14T13:07:51.536Z,32.30
2022-09-14T13:10:24.600Z,31.90
2022-09-14T13:12:52.328Z,31.50
2022-09-14T13:15:25.363Z,30.70
2022-09-14T13:18:04.791Z,30.00
2022-09-14T13:20:36.025Z,29.20
2022-09-14T13:23:03.413Z,28.70
2022-09-14T13:25:37.148Z,28.20
2022-09-14T13:28:07.196Z,28.10
2022-09-14T13:30:35.935Z,28.60
2022-09-14T13:33:03.779Z,28.80
2022-09-14T13:35:38.891Z,28.60
2022-09-14T13:38:09.989Z,28.20
2022-09-14T13:40:37.212Z,27.80
2022-09-14T13:43:04.697Z,27.40
2022-09-14T13:45:32.961Z,27.20
2022-09-14T13:47:59.959Z,27.30
2022-09-14T13:50:27.193Z,27.90
2022-09-14T13:53:03.481Z,28.90
2022-09-14T13:55:33.888Z,29.70
2022-09-14T13:58:09.937Z,30.30
2022-09-14T14:00:48.814Z,30.60
2022-09-14T14:03:38.064Z,30.70
2022-09-14T14:06:29.452Z,31.10
2022-09-14T14:08:58.992Z,31.40
2022-09-14T14:11:36.335Z,31.30
2022-09-14T14:14:26.571Z,31.50
2022-09-14T14:17:20.265Z,32.00
2022-09-14T14:19:48.057Z,32.20
2022-09-14T14:22:14.842Z,31.80
2022-09-14T14:25:09.094Z,31.20
2022-09-14T14:27:37.835Z,30.40
2022-09-14T14:30:14.669Z,29.50
2022-09-14T14:32:41.546Z,29.20
2022-09-14T14:35:16.743Z,29.00
2022-09-14T14:37:43.608Z,28.60
2022-09-14T14:40:13.309Z,28.20
2022-09-14T14:42:41.172Z,27.80
2022-09-14T14:45:18.891Z,27.50
2022-09-14T14:47:47.412Z,27.30
2022-09-14T14:50:17.022Z,27.50
2022-09-14T14:52:43.935Z,28.20
2022-09-14T14:55:10.795Z,28.90
2022-09-14T14:57:40.840Z,29.50
2022-09-14T15:00:17.811Z,30.00
2022-09-14T15:02:44.883Z,30.80
2022-09-14T15:05:12.833Z,31.50
2022-09-14T15:07:40.306Z,31.50
2022-09-14T15:10:09.778Z,30.80
2022-09-14T15:12:37.099Z,30.20
2022-09-14T15:15:04.556Z,30.00
2022-09-14T15:17:31.415Z,30.50
2022-09-14T15:19:58.246Z,31.10
2022-09-14T15:22:25.245Z,31.80
2022-09-14T15:24:52.063Z,32.30
2022-09-14T15:27:18.868Z,32.80
2022-09-14T15:29:45.843Z,33.20
2022-09-14T15:32:12.757Z,33.50
2022-09-14T15:34:39.567Z,33.40
2022-09-14T15:37:06.411Z,33.30
2022-09-14T15:39:33.275Z,33.40
2022-09-14T15:42:00.389Z,33.80
2022-09-14T15:44:27.288Z,34.20
2022-09-14T15:46:56.065Z,34.50
2022-09-14T15:49:24.984Z,34.40
2022-09-14T15:51:53.987Z,34.50
2022-09-14T15:54:24.936Z,34.60
2022-09-14T15:56:54.812Z,34.70
2022-09-14T15:59:22.493Z,34.80
2022-09-14T16:01:49.919Z,35.00
2022-09-14T16:04:17.568Z,35.00
2022-09-14T16:06:44.694Z,34.70
2022-09-14T16:09:13.427Z,34.00
2022-09-14T16:11:40.796Z,33.10
2022-09-14T16:14:10.007Z,32.20
2022-09-14T16:16:37.923Z,31.20
2022-09-14T16:19:13.342Z,30.30
2022-09-14T16:21:41.676Z,29.40
2022-09-14T16:24:12.235Z,28.70
2022-09-14T16:26:39.605Z,28.10
2022-09-14T16:29:11.657Z,27.70
2022-09-14T16:31:40.582Z,27.20
2022-09-14T16:34:16.782Z,26.80
2022-09-14T16:36:44.410Z,26.50
2022-09-14T16:39:16.742Z,26.20
2022-09-14T16:41:44.419Z,26.00
2022-09-14T16:44:17.856Z,25.70
2022-09-14T16:46:45.086Z,25.40
2022-09-14T16:49:12.282Z,25.20
2022-09-14T16:51:39.367Z,25.00
2022-09-14T16:54:06.966Z,24.80
2022-09-14T16:56:37.300Z,24.70
2022-09-14T16:59:05.349Z,24.50
2022-09-14T17:01:35.402Z,24.40
2022-09-14T17:04:08.265Z,24.30
2022-09-14T17:06:37.556Z,24.20
2022-09-14T17:09:10.376Z,24.00
2022-09-14T17:11:38.780Z,23.90
2022-09-14T17:14:06.432Z,23.80
2022-09-14T17:16:33.621Z,23.70
2022-09-14T17:19:03.156Z,23.60
2022-09-14T17:21:33.249Z,23.50
2022-09-14T17:24:00.999Z,23.50
2022-09-14T17:26:28.174Z,23.40
2022-09-14T17:28:56.971Z,23.30
2022-09-14T17:31:26.695Z,23.20
2022-09-14T17:33:55.375Z,23.10
2022-09-14T17:36:22.784Z,23.00
2022-09-14T17:38:50.268Z,22.90
2022-09-14T17:41:22.762Z,22.90
2022-09-14T17:43:58.616Z,22.70
2022-09-14T17:46:27.087Z,22.70
2022-09-14T17:48:54.558Z,22.60
2022-09-14T17:51:24.333Z,22.50
2022-09-14T17:53:53.634Z,22.40
2022-09-14T17:56:24.318Z,22.30
2022-09-14T17:58:59.106Z,22.20
2022-09-14T18:01:26.347Z,22.00
2022-09-14T18:04:01.891Z,22.00
2022-09-14T18:06:32.967Z,21.80
2022-09-14T18:09:03.525Z,21.70
2022-09-14T18:11:31.244Z,21.60
2022-09-14T18:13:58.656Z,21.50
2022-09-14T18:16:26.329Z,21.30
2022-09-14T18:18:53.493Z,21.20
2022-09-14T18:21:20.648Z,21.10
2022-09-14T18:23:51.764Z,21.00
2022-09-14T18:26:19.181Z,20.90
2022-09-14T18:28:46.460Z,20.90
2022-09-14T18:31:16.013Z,20.80
2022-09-14T18:33:50.320Z,20.80
2022-09-14T18:36:18.080Z,20.70
2022-09-14T18:38:45.432Z,20.60
2022-09-14T18:41:13.252Z,20.60
2022-09-14T18:43:44.657Z,20.50
2022-09-14T18:46:12.257Z,20.40
2022-09-14T18:48:40.619Z,20.30
2022-09-14T18:51:08.331Z,20.30
2022-09-14T18:53:35.869Z,20.20
2022-09-14T18:56:11.548Z,20.00
2022-09-14T18:58:45.398Z,19.90
2022-09-14T19:01:13.627Z,19.80
2022-09-14T19:03:42.427Z,19.60
2022-09-14T19:06:14.610Z,19.50
2022-09-14T19:08:42.158Z,19.40
2022-09-14T19:11:14.963Z,19.30
2022-09-14T19:13:42.175Z,19.20
2022-09-14T19:16:19.344Z,19.10
2022-09-14T19:18:48.049Z,19.00
2022-09-14T19:21:21.633Z,18.90
2022-09-14T19:24:02.817Z,18.90
2022-09-14T19:26:33.490Z,18.90
2022-09-14T19:29:05.534Z,18.90
2022-09-14T19:31:33.622Z,19.00
2022-09-14T19:34:02.061Z,19.10
2022-09-14T19:36:29.731Z,19.10
2022-09-14T19:39:01.423Z,19.10
2022-09-14T19:41:29.216Z,19.10
2022-09-14T19:43:56.081Z,19.10
2022-09-14T19:46:23.568Z,19.10
2022-09-14T19:48:51.087Z,19.10
2022-09-14T19:51:21.403Z,19.10
2022-09-14T19:53:50.910Z,19.00
2022-09-14T19:56:21.686Z,19.00
2022-09-14T19:58:50.507Z,19.00
2022-09-14T20:01:19.343Z,18.90
2022-09-14T20:03:47.883Z,18.90
2022-09-14T20:06:23.551Z,18.80
2022-09-14T20:09:12.233Z,18.80
2022-09-14T20:11:40.786Z,18.80
2022-09-14T20:14:10.850Z,18.80
2022-09-14T20:16:40.921Z,18.70
2022-09-14T20:19:16.087Z,18.60
2022-09-14T20:21:44.462Z,18.60
2022-09-14T20:24:16.967Z,18.50
2022-09-14T20:26:49.054Z,18.50
2022-09-14T20:29:17.554Z,18.50
2022-09-14T20:31:45.231Z,18.40
2022-09-14T20:34:13.094Z,18.30
2022-09-14T20:36:40.010Z,18.30
2022-09-14T20:39:07.174Z,18.20
2022-09-14T20:41:35.728Z,18.20
2022-09-14T20:44:03.863Z,18.10
2022-09-14T20:46:36.114Z,18.10
2022-09-14T20:49:06.147Z,18.10
2022-09-14T20:51:34.209Z,18.00
2022-09-14T20:54:01.259Z,18.00
2022-09-14T20:56:30.501Z,17.90
2022-09-14T20:59:01.246Z,18.00
2022-09-14T21:01:30.671Z,17.90
2022-09-14T21:04:04.144Z,17.90
2022-09-14T21:06:31.066Z,17.90
2022-09-14T21:09:00.804Z,17.90
2022-09-14T21:11:28.396Z,17.90
2022-09-14T21:13:56.668Z,17.80
2022-09-14T21:16:25.715Z,17.70
2022-09-14T21:18:55.840Z,17.70
2022-09-14T21:21:23.466Z,17.70
2022-09-14T21:23:50.607Z,17.60
2022-09-14T21:26:19.373Z,17.50
2022-09-14T21:28:46.635Z,17.50
2022-09-14T21:31:19.984Z,17.40
2022-09-14T21:33:48.036Z,17.40
2022-09-14T21:36:18.101Z,17.40
2022-09-14T21:38:54.296Z,17.20
2022-09-14T21:41:23.365Z,17.10
2022-09-14T21:43:51.179Z,17.00
2022-09-14T21:46:18.475Z,16.90
2022-09-14T21:48:46.776Z,16.90
2022-09-14T21:51:18.049Z,16.80
2022-09-14T21:53:59.763Z,16.70
2022-09-14T21:56:29.955Z,16.60
2022-09-14T21:59:01.925Z,16.50
2022-09-14T22:01:29.900Z,16.50
2022-09-14T22:03:58.041Z,16.40
2022-09-14T22:06:28.002Z,16.30
2022-09-14T22:08:55.974Z,16.20
2022-09-14T22:11:25.104Z,16.20
2022-09-14T22:13:57.325Z,16.10
2022-09-14T22:16:26.554Z,16.00
2022-09-14T22:18:56.722Z,16.00
2022-09-14T22:21:25.416Z,15.90
2022-09-14T22:23:54.455Z,15.80
2022-09-14T22:26:22.152Z,15.80
2022-09-14T22:28:50.986Z,15.80
2022-09-14T22:31:20.576Z,15.70
2022-09-14T22:33:48.309Z,15.70
2022-09-14T22:36:15.531Z,15.70
2022-09-14T22:38:42.914Z,15.80
2022-09-14T22:41:17.599Z,15.80
2022-09-14T22:43:45.090Z,15.80
2022-09-14T22:46:12.830Z,15.90
2022-09-14T22:48:42.296Z,16.00
2022-09-14T22:51:12.537Z,16.10
2022-09-14T22:53:39.688Z,16.10
2022-09-14T22:56:27.948Z,16.20
2022-09-14T22:58:56.504Z,16.20
2022-09-14T23:01:31.951Z,16.30
2022-09-14T23:04:05.204Z,16.30
2022-09-14T23:06:41.658Z,16.40
2022-09-14T23:09:11.664Z,16.40
2022-09-14T23:11:38.593Z,16.50
2022-09-14T23:14:05.434Z,16.50
2022-09-14T23:16:32.590Z,16.50
2022-09-14T23:19:03.437Z,16.60
2022-09-14T23:21:31.566Z,16.70
2022-09-14T23:24:02.243Z,16.70
2022-09-14T23:26:29.970Z,16.70
2022-09-14T23:29:07.032Z,16.70
2022-09-14T23:31:34.176Z,16.70
2022-09-14T23:34:02.627Z,16.70
2022-09-14T23:36:30.265Z,16.70
2022-09-14T23:38:57.536Z,16.70
2022-09-14T23:41:25.942Z,16.70
2022-09-14T23:43:53.084Z,16.70
2022-09-14T23:46:20.919Z,16.70
2022-09-14T23:48:48.098Z,16.70
2022-09-14T23:51:15.382Z,16.70
2022-09-14T23:53:43.219Z,16.70
2022-09-14T23:56:10.993Z,16.70
2022-09-14T23:58:38.689Z,16.70
